Airfield :
LOGIN :

Register | Disclaimer

   EN    FR    IT 

 










Legend :    VFR   Marginal VFR   IFR   Intensive IFR   Very Intensive IFR
Visi :
Ceiling :
>= 8 km
>= 3000ft
5 to 8 km
1000 to 3000 ft
1500m to 5 km
500 to 1000 ft
800 to 1500m
200 to 500 ft
< 800m
< 200 ft
Symbols :   Thunderstorms  Fog  Heavy snow  Heavy precipitations  Wind > 20 kt
SIGMETs :     Misc.  Thunderstorms  Icing  Turbulence  Mountain Waves  Volcanic Ashes







- Airport Elevation : 183 ft
- IATA code : HAJ


EDDV - Hanover/Langenhagen Int.

CURRENT METAR :
  • 172350Z 31015KT 4500 -SHSN SCT008CB BKN011 M00/M01 Q1009

EXPIRED METARs :
  • 172320Z 31015KT 9999 -SHSN SCT011CB BKN016 01/M01 Q1008
  • 172250Z 28015KT 9999 -SHSN FEW011CB BKN025 01/M01 Q1007
  • 172220Z 28015KT 9999 SCT010 BKN016 01/M01 Q1006
  • 172150Z 27014KT 240V300 9999 SCT010 BKN027 01/M00 Q1006
  • 172120Z 26012KT 9999 FEW006 SCT011 BKN039 01/M00 Q1005
  • 172050Z 27012KT 240V300 9999 FEW006 BKN011 01/M01 Q1004 NOSIG

TAF TAF EDDV
Valid from the 18 at 00:00 until the 19 at 00:00 UTC


172300Z 1800/1824 31010KT 1200 SHSN BKN004 BKN012CB
BECMG 1800/1802 9999 NSW SCT020
BECMG 1806/1809 23006KT
No reported NOTAMs for that airfield.



MET'MAP, your aeronautical weather chart ! - Copyright ORBIFLY December 2007 - Disclaimer

ORBIFLY MET'MAP TEAM :

Programming & Development : Alexandra Zaïnal
Concept & Development : Baudouin d'Aumeries
Co-Development & Prog : Marc-Olivier Méhu
Technical & hardware support : Manuel Goepfert

Contact : metmap@orbifly.com




SOURCES & CREDITS :

   NOAA